createdAt,value
2019-02-10T00:14:20.264Z,301
2019-02-10T00:19:28.684Z,301.3
2019-02-10T00:24:37.152Z,301
2019-02-10T00:29:45.567Z,301.3
2019-02-10T00:34:54.018Z,301.2
2019-02-10T00:45:10.890Z,301.1
2019-02-10T00:55:27.825Z,301.2
2019-02-10T01:00:36.712Z,301.2
2019-02-10T01:05:44.737Z,301.1
2019-02-10T01:16:01.541Z,301.2
2019-02-10T01:26:18.561Z,301.1
2019-02-10T01:46:52.434Z,301.3
2019-02-10T01:52:00.936Z,301.2
2019-02-10T01:57:09.274Z,301.1
2019-02-10T02:07:26.156Z,301.2
2019-02-10T02:12:34.560Z,301.3
2019-02-10T02:17:42.997Z,301.3
2019-02-10T02:27:59.897Z,301.3
2019-02-10T02:38:16.820Z,301.4
2019-02-10T02:53:42.149Z,301.1
2019-02-10T02:58:50.525Z,301.2
2019-02-10T03:03:58.959Z,301.5
2019-02-10T03:09:07.552Z,301.4
2019-02-10T03:14:15.938Z,301.4
2019-02-10T03:29:41.504Z,301.2
2019-02-10T03:39:58.383Z,301.4
2019-02-10T03:50:15.465Z,301.1
2019-02-10T03:55:23.954Z,301.2
2019-02-10T04:00:32.602Z,301.3
2019-02-10T04:10:49.558Z,301.2
2019-02-10T04:15:58.136Z,301.3
2019-02-10T04:21:06.714Z,301.1
2019-02-10T04:31:23.856Z,301
2019-02-10T04:41:40.995Z,301.1
2019-02-10T04:51:57.988Z,301.1
2019-02-10T05:12:32.425Z,301
2019-02-10T05:17:40.848Z,300.9
2019-02-10T05:22:49.435Z,300.9
2019-02-10T05:33:06.719Z,300.7
2019-02-10T05:43:23.912Z,300.8
2019-02-10T05:53:41.260Z,300.9
2019-02-10T06:03:58.419Z,300.6
2019-02-10T06:24:32.899Z,300.5
2019-02-10T06:34:50.230Z,300.6
2019-02-10T06:55:24.562Z,300.4
2019-02-10T07:26:16.337Z,300.3
2019-02-10T07:36:33.510Z,300.2
2019-02-10T07:46:50.698Z,300.3
2019-02-10T07:57:07.881Z,300.2
2019-02-10T08:02:16.431Z,300.3
2019-02-10T08:07:24.885Z,300.2
2019-02-10T08:12:33.580Z,300.2
2019-02-10T08:17:41.976Z,300.1
2019-02-10T08:22:50.626Z,300.3
2019-02-10T08:33:07.478Z,300.2
2019-02-10T08:38:16.026Z,300.2
2019-02-10T08:48:32.979Z,300.1
2019-02-10T08:53:41.340Z,300.2
2019-02-10T08:58:49.816Z,300.2
2019-02-10T09:03:58.283Z,300.1
2019-02-10T09:19:23.542Z,300.3
2019-02-10T09:24:31.999Z,300.2
2019-02-10T09:29:40.410Z,300.2
2019-02-10T09:34:48.845Z,300.1
2019-02-10T09:39:57.265Z,300.1
2019-02-10T09:50:14.076Z,300.2
2019-02-10T09:55:22.473Z,300.2
2019-02-10T10:05:39.289Z,300.1
2019-02-10T10:21:04.550Z,300.2
2019-02-10T10:31:21.266Z,300.2
2019-02-10T10:36:29.966Z,300.1
2019-02-10T10:57:03.207Z,300.1
2019-02-10T11:02:11.520Z,300.1
2019-02-10T11:07:19.899Z,300.2
2019-02-10T11:12:28.308Z,300.1
2019-02-10T11:22:45.078Z,300.1
2019-02-10T11:27:53.386Z,300.1
2019-02-10T11:33:01.823Z,300.1
2019-02-10T11:38:10.068Z,300.1
2019-02-10T11:43:18.546Z,300.1
2019-02-10T11:58:43.600Z,300.1
2019-02-10T12:03:51.880Z,300.1
2019-02-10T12:14:08.744Z,300.2
2019-02-10T12:19:17.070Z,300.1
2019-02-10T12:24:25.342Z,300.1
2019-02-10T12:29:33.691Z,300.2
2019-02-10T12:34:41.934Z,300.1
2019-02-10T12:39:50.330Z,300.1
2019-02-10T12:44:58.594Z,300.1
2019-02-10T12:55:15.226Z,300.1
2019-02-10T13:00:23.535Z,300.1
2019-02-10T13:05:31.856Z,300.1
2019-02-10T13:10:40.176Z,300.1
2019-02-10T13:15:48.476Z,300.2
2019-02-10T13:20:56.764Z,300.2
2019-02-10T13:41:30.020Z,300.3
2019-02-10T13:46:38.265Z,300.3
2019-02-10T13:51:46.775Z,300.3
2019-02-10T13:56:54.832Z,300.3
2019-02-10T14:02:03.199Z,300.3
2019-02-10T14:07:11.635Z,300.3
2019-02-10T14:12:19.688Z,300.3
2019-02-10T14:17:28.016Z,300.2
2019-02-10T14:32:52.790Z,300.2
2019-02-10T14:38:01.279Z,300.1
2019-02-10T14:48:17.662Z,300.1
2019-02-10T14:58:34.122Z,300.3
2019-02-10T15:03:42.442Z,300.2
2019-02-10T15:08:50.718Z,300.2
2019-02-10T15:13:58.982Z,300.2
2019-02-10T15:24:15.531Z,300.3
2019-02-10T15:29:23.780Z,300.4
2019-02-10T15:39:40.338Z,300.4
2019-02-10T15:49:56.992Z,300.5
2019-02-10T15:55:07.934Z,300.5
2019-02-10T16:05:21.808Z,300.6
2019-02-10T16:10:30.192Z,300.7
2019-02-10T16:15:38.487Z,300.7
2019-02-10T16:20:46.931Z,300.8
2019-02-10T16:25:55.280Z,300.3
2019-02-10T16:31:03.629Z,301.1
2019-02-10T16:41:20.355Z,300.2
2019-02-10T16:46:28.910Z,300.2
2019-02-10T16:51:37.167Z,300.1
2019-02-10T16:56:45.690Z,300.1
2019-02-10T17:07:02.633Z,300.1
2019-02-10T17:12:11.000Z,300.2
2019-02-10T17:17:19.471Z,300.1
2019-02-10T17:22:28.013Z,300.2
2019-02-10T17:32:44.984Z,300.3
2019-02-10T17:37:53.396Z,300.3
2019-02-10T17:43:01.921Z,300.5
2019-02-10T17:48:10.415Z,300.3
2019-02-10T17:53:18.938Z,300.3
2019-02-10T17:58:27.397Z,300.3
2019-02-10T18:03:35.991Z,300.4
2019-02-10T18:08:44.385Z,300.2
2019-02-10T18:13:52.919Z,300.1
2019-02-10T18:19:01.422Z,300.1
2019-02-10T18:24:10.000Z,300.2
2019-02-10T18:29:18.698Z,300.1
2019-02-10T18:34:27.156Z,300.1
2019-02-10T18:39:35.696Z,300.2
2019-02-10T18:49:52.907Z,300.1
2019-02-10T18:55:01.625Z,300.1
2019-02-10T19:00:10.163Z,300.1
2019-02-10T19:05:18.810Z,300.1
2019-02-10T19:10:27.457Z,300.2
2019-02-10T19:15:36.155Z,300.1
2019-02-10T19:20:44.766Z,300.1
2019-02-10T19:25:53.502Z,300.2
2019-02-10T19:31:02.111Z,300.1
2019-02-10T19:36:10.770Z,300.2
2019-02-10T19:41:19.485Z,300.2
2019-02-10T19:46:28.213Z,300.2
2019-02-10T19:51:36.918Z,300.2
2019-02-10T19:56:45.755Z,300.3
2019-02-10T20:01:54.405Z,300.3
2019-02-10T20:07:03.250Z,300.3
2019-02-10T20:12:11.968Z,300.3
2019-02-10T20:17:20.649Z,300.3
2019-02-10T20:22:29.388Z,300.3
2019-02-10T20:32:47.019Z,300.3
2019-02-10T20:37:55.722Z,300.4
2019-02-10T20:43:04.626Z,300.4
2019-02-10T20:48:13.282Z,300.4
2019-02-10T20:53:22.040Z,300.5
2019-02-10T20:58:30.905Z,300.4
2019-02-10T21:03:39.608Z,300.4
2019-02-10T21:08:48.390Z,300.4
2019-02-10T21:19:05.964Z,300.1
2019-02-10T21:24:14.875Z,300.1
2019-02-10T21:34:32.410Z,300.1
2019-02-10T21:39:41.081Z,300
2019-02-10T21:44:49.912Z,300.1
2019-02-10T21:49:58.715Z,300.1
2019-02-10T21:55:07.490Z,300.1
2019-02-10T22:00:16.369Z,300.1
2019-02-10T22:05:25.034Z,300.1
2019-02-10T22:15:42.659Z,300.2
2019-02-10T22:20:51.426Z,300.3
2019-02-10T22:31:09.129Z,300.2
2019-02-10T22:36:17.931Z,300.2
2019-02-10T22:41:26.674Z,300.1
2019-02-10T22:46:35.502Z,300.2
2019-02-10T22:51:44.384Z,300.1
2019-02-10T23:02:01.970Z,300.2
2019-02-10T23:07:10.794Z,300.2
2019-02-10T23:12:19.609Z,300.2
2019-02-10T23:17:28.535Z,300.2
2019-02-10T23:22:37.197Z,300.2
2019-02-10T23:27:46.066Z,300.2
2019-02-10T23:32:54.826Z,300.2
2019-02-10T23:38:03.607Z,300.2
2019-02-10T23:43:12.429Z,300.2
2019-02-10T23:48:21.218Z,300.2
2019-02-10T23:58:38.879Z,300.3
